SVPL1: Red River at Shreveport Site 2

                                SHEF ID:       SVPL1     Red River at Shreveport Site 2
STATION TYPE:

PRECIP STAGE RIV-FLOW VOLTAGE
in ft cfs volt
Ccp-Rev Ccp-Rev Ccp-Rev Ccp-Rev
(America/Chicago)
06/17 00:00 0.00 15.13 17040 12.83
06/17 01:00 0.00 15.13 17040 12.82
06/17 02:00 0.00 15.15 17200 12.81
06/17 03:00 0.00 15.15 17200 12.80
06/17 04:00 0.00 15.06 16480 12.80
06/17 05:00 0.00 15.20 17600 12.78
06/17 06:00 0.00 15.22 17760 12.78
06/17 07:00 0.00 15.26 18080 12.90
06/17 08:00 0.00 15.25 18000 13.13
06/17 09:00 0.00 15.29 18320 13.06
06/17 10:00 0.00 15.36 18880 13.06
06/17 11:00 0.00 15.32 18560 13.05
06/17 12:00 0.00 15.46 19680 13.09
06/17 13:00 0.00 15.41 19280 13.08
06/17 14:00 0.00 15.52 20160 13.06
06/17 15:00 0.00 15.56 20480 13.08
06/17 16:00 0.00 15.65 21200 13.06
06/17 17:00 0.00 15.58 20640 13.05
06/17 18:00 0.00 15.70 21600 13.00
06/17 19:00 0.00 15.80 22400 12.90
06/17 20:00 0.00 15.74 21920 12.87
06/17 21:00 0.00 15.82 22560 12.86
06/17 22:00 0.00 15.92 23360 12.84
06/17 23:00 0.00 15.93 23440 12.83
Data processed at Mon 22Jun2026 03:24 GMT

NOTICE: If you are parsing this page

Please convert to using our Data API. Starting early 2026 we will be migrating to: https://water.usace.army.mil with modern pages rendered in JavaScript. When this migration completes you will no longer be able to scrape this page! CWMSDataAPI (CDA)

Timeseries IDs (TSIDs)

TSIDs used from left to right in the data table
SHRE.Precip-Inc.Total.1Hour.1Hour.Ccp-Rev
SHRE.Stage.Inst.1Hour.0.Ccp-Rev
SHRE.Flow.Inst.1Hour.0.Ccp-Rev
SHRE.Volt-Battery.Inst.1Hour.0.Ccp-Rev

                            

All information presented herein is the property of the government of the United States of America and may be revised or deleted at any time without prior notice. Dissemination of this information without the expressed written consent of the Public Affairs Office, Tulsa District U.S. Army Corps of Engineers is strictly prohibited. These data are gathered electronically and, as presented, have NOT undergone any form of quality control. These data are NOT guaranteed to be valid or correct.